createdAt,value
2023-01-27T00:01:23.872Z,91070.59
2023-01-27T00:03:55.917Z,91070.25
2023-01-27T00:06:28.014Z,91064.72
2023-01-27T00:09:00.044Z,91057.00
2023-01-27T00:11:50.478Z,91061.66
2023-01-27T00:14:23.364Z,91049.06
2023-01-27T00:16:55.596Z,91046.50
2023-01-27T00:19:27.628Z,91054.50
2023-01-27T00:22:19.986Z,91050.66
2023-01-27T00:24:51.984Z,91031.75
2023-01-27T00:27:24.096Z,91014.63
2023-01-27T00:29:56.764Z,91028.66
2023-01-27T00:32:50.683Z,91024.09
2023-01-27T00:35:23.064Z,91028.59
2023-01-27T00:37:55.150Z,91029.13
2023-01-27T00:40:27.393Z,91020.19
2023-01-27T00:42:59.457Z,91022.78
2023-01-27T00:45:51.882Z,91036.59
2023-01-27T00:48:23.964Z,91037.59
2023-01-27T00:50:56.398Z,91038.41
2023-01-27T00:53:28.587Z,91035.09
2023-01-27T00:56:00.884Z,91023.91
2023-01-27T00:58:33.100Z,91031.28
2023-01-27T01:01:07.242Z,91027.75
2023-01-27T01:03:39.331Z,91029.00
2023-01-27T01:06:12.029Z,91034.16
2023-01-27T01:08:44.483Z,91042.53
2023-01-27T01:11:17.001Z,91034.84
2023-01-27T01:13:49.179Z,91043.72
2023-01-27T01:16:23.102Z,91041.03
2023-01-27T01:18:55.217Z,91049.22
2023-01-27T01:21:27.266Z,91041.06
2023-01-27T01:23:59.371Z,91030.06
2023-01-27T01:26:31.391Z,91046.41
2023-01-27T01:29:03.544Z,91046.69
2023-01-27T01:31:36.255Z,91055.91
2023-01-27T01:34:09.072Z,91058.75
2023-01-27T01:36:41.117Z,91055.28
2023-01-27T01:39:13.198Z,91057.97
2023-01-27T01:41:46.270Z,91066.44
2023-01-27T01:44:19.613Z,91062.16
2023-01-27T01:46:52.605Z,91063.47
2023-01-27T01:49:27.715Z,91061.69
2023-01-27T01:52:02.418Z,91053.25
2023-01-27T01:54:36.392Z,91034.09
2023-01-27T01:57:10.486Z,91032.06
2023-01-27T01:59:44.153Z,91024.72
2023-01-27T02:02:19.133Z,91032.16
2023-01-27T02:04:54.564Z,91019.34
2023-01-27T02:07:30.662Z,91015.50
2023-01-27T02:10:02.805Z,91010.41
2023-01-27T02:12:35.382Z,91007.34
2023-01-27T02:15:08.293Z,91001.75
2023-01-27T02:17:41.064Z,90990.50
2023-01-27T02:20:18.714Z,90989.00
2023-01-27T02:22:57.731Z,90985.38
2023-01-27T02:25:30.885Z,90981.72
2023-01-27T02:28:04.763Z,90968.91
2023-01-27T02:30:36.954Z,90979.25
2023-01-27T02:33:10.838Z,90991.56
2023-01-27T02:35:46.680Z,90980.84
2023-01-27T02:38:19.819Z,90974.69
2023-01-27T02:40:53.860Z,90976.72
2023-01-27T02:43:27.074Z,90975.75
2023-01-27T02:45:59.198Z,90974.44
2023-01-27T02:48:31.335Z,90984.97
2023-01-27T02:51:03.502Z,90979.59
2023-01-27T02:53:38.164Z,90984.69
2023-01-27T02:56:10.384Z,90983.16
2023-01-27T02:58:43.046Z,90980.09
2023-01-27T03:01:24.749Z,90973.19
2023-01-27T03:03:56.764Z,90981.63
2023-01-27T03:06:28.959Z,90982.41
2023-01-27T03:09:01.520Z,90981.41
2023-01-27T03:11:51.799Z,90983.97
2023-01-27T03:14:43.270Z,90976.03
2023-01-27T03:17:33.967Z,90973.97
2023-01-27T03:20:06.297Z,90967.63
2023-01-27T03:22:38.419Z,90948.91
2023-01-27T03:25:10.621Z,90958.41
2023-01-27T03:27:43.082Z,90948.44
2023-01-27T03:30:26.529Z,90955.59
2023-01-27T03:33:08.341Z,90956.63
2023-01-27T03:36:11.777Z,90952.72
2023-01-27T03:39:09.404Z,90946.81
2023-01-27T03:41:59.886Z,90939.91
2023-01-27T03:44:51.104Z,90930.97
2023-01-27T03:47:23.795Z,90933.06
2023-01-27T03:49:56.011Z,90919.72
2023-01-27T03:52:28.011Z,90918.47
2023-01-27T03:55:00.025Z,90919.25
2023-01-27T03:57:32.466Z,90917.19
2023-01-27T04:00:04.925Z,90914.88
2023-01-27T04:03:04.061Z,90922.56
2023-01-27T04:05:54.340Z,90936.63
2023-01-27T04:08:26.487Z,90932.53
2023-01-27T04:11:16.275Z,90926.84
2023-01-27T04:13:48.407Z,90939.59
2023-01-27T04:16:28.221Z,90949.56
2023-01-27T04:19:00.994Z,90960.22
2023-01-27T04:21:33.276Z,90967.34
2023-01-27T04:24:08.018Z,90969.81
2023-01-27T04:26:41.067Z,90977.56
2023-01-27T04:29:13.276Z,90985.47
2023-01-27T04:31:45.391Z,90988.06
2023-01-27T04:34:18.326Z,90994.69
2023-01-27T04:36:50.542Z,91001.13
2023-01-27T04:39:22.987Z,91001.63
2023-01-27T04:41:55.578Z,91006.03
2023-01-27T04:44:27.657Z,91026.53
2023-01-27T04:46:59.990Z,91029.03
2023-01-27T04:49:33.010Z,91018.59
2023-01-27T04:52:05.030Z,91018.88
2023-01-27T04:54:37.070Z,91006.09
2023-01-27T04:57:09.842Z,91000.91
2023-01-27T04:59:41.909Z,91010.38
2023-01-27T05:02:14.265Z,91005.28
2023-01-27T05:04:46.984Z,91001.94
2023-01-27T05:07:19.110Z,90998.56
2023-01-27T05:09:51.171Z,91007.59
2023-01-27T05:12:23.226Z,91010.69
2023-01-27T05:14:55.585Z,91004.00
2023-01-27T05:17:30.465Z,91007.88
2023-01-27T05:20:03.777Z,91006.88
2023-01-27T05:22:35.836Z,90998.38
2023-01-27T05:25:08.623Z,90998.94
2023-01-27T05:27:40.894Z,91002.28
2023-01-27T05:30:13.296Z,91003.84
2023-01-27T05:32:46.548Z,91004.88
2023-01-27T05:35:19.222Z,91007.41
2023-01-27T05:37:51.297Z,90994.59
2023-01-27T05:40:23.285Z,90990.75
2023-01-27T05:42:55.383Z,90988.63
2023-01-27T05:45:27.431Z,90988.66
2023-01-27T05:47:59.679Z,90980.38
2023-01-27T05:50:32.329Z,90976.34
2023-01-27T05:53:04.408Z,90983.28
2023-01-27T05:55:36.389Z,90996.03
2023-01-27T05:58:08.423Z,91004.72
2023-01-27T06:00:40.481Z,90987.59
2023-01-27T06:03:12.890Z,90989.47
2023-01-27T06:05:52.927Z,91000.19
2023-01-27T06:08:25.781Z,91005.38
2023-01-27T06:10:58.148Z,90999.75
2023-01-27T06:13:30.380Z,91006.44
2023-01-27T06:16:03.271Z,90998.00
2023-01-27T06:18:35.687Z,91002.16
2023-01-27T06:21:09.464Z,90997.34
2023-01-27T06:23:41.557Z,90993.75
2023-01-27T06:26:15.652Z,91007.34
2023-01-27T06:28:47.797Z,91021.97
2023-01-27T06:31:21.064Z,91015.06
2023-01-27T06:33:53.287Z,91008.16
2023-01-27T06:36:26.035Z,90999.44
2023-01-27T06:38:58.092Z,91014.56
2023-01-27T06:41:30.222Z,91022.78
2023-01-27T06:44:02.404Z,91036.38
2023-01-27T06:46:34.589Z,91027.41
2023-01-27T06:49:06.675Z,91019.47
2023-01-27T06:51:39.369Z,91027.16
2023-01-27T06:54:11.564Z,91025.38
2023-01-27T06:56:43.683Z,91019.50
2023-01-27T06:59:15.801Z,91033.06
2023-01-27T07:01:48.121Z,91025.91
2023-01-27T07:04:20.279Z,91023.38
2023-01-27T07:06:53.100Z,91024.38
2023-01-27T07:09:25.141Z,91023.88
2023-01-27T07:11:57.223Z,91020.03
2023-01-27T07:14:29.449Z,91024.38
2023-01-27T07:17:01.743Z,91014.63
2023-01-27T07:19:35.178Z,91015.41
2023-01-27T07:22:08.050Z,91024.59
2023-01-27T07:24:40.069Z,91032.03
2023-01-27T07:27:12.160Z,91030.97
2023-01-27T07:29:44.211Z,91028.44
2023-01-27T07:32:16.306Z,91027.19
2023-01-27T07:34:48.321Z,91024.13
2023-01-27T07:37:21.259Z,91015.66
2023-01-27T07:39:53.315Z,91019.03
2023-01-27T07:42:25.354Z,91021.56
2023-01-27T07:44:57.364Z,91025.16
2023-01-27T07:47:29.478Z,91026.47
2023-01-27T07:50:01.690Z,91038.53
2023-01-27T07:52:34.497Z,91038.75
2023-01-27T07:55:07.441Z,91030.59
2023-01-27T07:57:39.832Z,91026.47
2023-01-27T08:00:14.937Z,91025.47
2023-01-27T08:02:49.818Z,91020.84
2023-01-27T08:05:22.180Z,91018.53
2023-01-27T08:07:58.283Z,91018.03
2023-01-27T08:10:30.999Z,91021.59
2023-01-27T08:13:03.188Z,91009.78
2023-01-27T08:15:35.234Z,91013.13
2023-01-27T08:18:07.323Z,91015.44
2023-01-27T08:20:39.392Z,91017.25
2023-01-27T08:23:12.091Z,91022.88
2023-01-27T08:25:48.369Z,91019.28
2023-01-27T08:28:21.422Z,91017.50
2023-01-27T08:30:53.652Z,91020.31
2023-01-27T08:33:25.789Z,91033.66
2023-01-27T08:36:01.624Z,91030.31
2023-01-27T08:38:34.497Z,91029.81
2023-01-27T08:41:07.805Z,91027.50
2023-01-27T08:43:48.169Z,91028.00
2023-01-27T08:46:20.469Z,91034.66
2023-01-27T08:48:52.646Z,91032.34
2023-01-27T08:51:25.282Z,91032.59
2023-01-27T08:53:58.489Z,91032.63
2023-01-27T08:56:30.650Z,91030.84
2023-01-27T08:59:02.884Z,91039.78
2023-01-27T09:01:35.044Z,91034.13
2023-01-27T09:04:07.114Z,91033.09
2023-01-27T09:06:39.206Z,91029.25
2023-01-27T09:09:12.465Z,91028.25
2023-01-27T09:11:44.775Z,91029.50
2023-01-27T09:14:16.799Z,91026.41
2023-01-27T09:16:48.926Z,91029.22
2023-01-27T09:19:20.963Z,91037.47
2023-01-27T09:21:53.232Z,91041.56
2023-01-27T09:24:26.022Z,91035.16
2023-01-27T09:27:00.061Z,91030.28
2023-01-27T09:29:33.196Z,91027.69
2023-01-27T09:32:05.606Z,91021.28
2023-01-27T09:34:37.766Z,91024.38
2023-01-27T09:37:10.502Z,91016.16
2023-01-27T09:39:45.711Z,91013.31
2023-01-27T09:42:33.052Z,91011.53
2023-01-27T09:45:32.433Z,91016.94
2023-01-27T09:48:10.287Z,91006.97
2023-01-27T09:50:44.362Z,91003.88
2023-01-27T09:53:44.513Z,91001.31
2023-01-27T09:56:22.469Z,90991.06
2023-01-27T09:59:00.541Z,90987.69
2023-01-27T10:01:38.336Z,90976.94
2023-01-27T10:04:18.654Z,90973.88
2023-01-27T10:07:03.336Z,90974.13
2023-01-27T10:10:08.603Z,90977.25
2023-01-27T10:12:53.748Z,90974.41
2023-01-27T10:15:32.032Z,90972.38
2023-01-27T10:18:11.304Z,90967.50
2023-01-27T10:20:47.551Z,90970.06
2023-01-27T10:23:29.081Z,90965.47
2023-01-27T10:26:09.472Z,90956.50
2023-01-27T10:28:47.227Z,90960.34
2023-01-27T10:31:23.466Z,90959.56
2023-01-27T10:33:57.648Z,90956.22
2023-01-27T10:36:33.703Z,90950.84
2023-01-27T10:39:12.794Z,90958.53
2023-01-27T10:41:57.023Z,90948.81
2023-01-27T10:44:37.669Z,90941.63
2023-01-27T10:47:13.833Z,90950.59
2023-01-27T10:49:50.895Z,90952.66
2023-01-27T10:52:25.800Z,90959.84
2023-01-27T10:55:00.120Z,90965.97
2023-01-27T10:57:34.793Z,90962.63
2023-01-27T11:00:41.897Z,90966.19
2023-01-27T11:03:10.358Z,90959.03
2023-01-27T11:05:44.420Z,90961.09
2023-01-27T11:08:18.755Z,90959.78
2023-01-27T11:11:11.366Z,90964.16
2023-01-27T11:13:43.678Z,90969.28
2023-01-27T11:16:17.752Z,90961.59
2023-01-27T11:18:55.305Z,90968.75
2023-01-27T11:21:30.137Z,90965.16
2023-01-27T11:24:11.875Z,90960.31
2023-01-27T11:26:46.325Z,90959.53
2023-01-27T11:29:21.428Z,90957.50
2023-01-27T11:31:56.907Z,90952.88
2023-01-27T11:34:33.198Z,90945.94
2023-01-27T11:37:12.675Z,90944.41
2023-01-27T11:39:44.933Z,90943.88
2023-01-27T11:42:17.577Z,90946.97
2023-01-27T11:44:50.750Z,90936.50
2023-01-27T11:47:24.704Z,90921.88
2023-01-27T11:49:57.347Z,90924.69
2023-01-27T11:52:29.429Z,90928.28
2023-01-27T11:55:04.930Z,90920.59
2023-01-27T11:57:41.121Z,90927.00
2023-01-27T12:00:19.613Z,90919.06
2023-01-27T12:02:54.971Z,90915.22
2023-01-27T12:05:30.360Z,90923.91
2023-01-27T12:08:03.925Z,90922.38
2023-01-27T12:10:38.169Z,90923.16
2023-01-27T12:13:15.852Z,90922.41
2023-01-27T12:15:49.196Z,90923.41
2023-01-27T12:18:22.970Z,90922.38
2023-01-27T12:20:58.918Z,90924.94
2023-01-27T12:23:33.355Z,90927.25
2023-01-27T12:26:06.816Z,90924.72
2023-01-27T12:28:41.515Z,90921.38
2023-01-27T12:31:17.766Z,90921.88
2023-01-27T12:33:58.172Z,90914.97
2023-01-27T12:36:36.381Z,90920.84
2023-01-27T12:39:23.934Z,90928.78
2023-01-27T12:41:56.003Z,90921.09
2023-01-27T12:44:39.666Z,90925.97
2023-01-27T12:47:21.074Z,90931.09
2023-01-27T12:50:15.001Z,90920.34
2023-01-27T12:52:52.142Z,90921.13
2023-01-27T12:55:27.898Z,90925.47
2023-01-27T12:58:00.425Z,90924.69
2023-01-27T13:00:33.727Z,90928.78
2023-01-27T13:03:11.377Z,90926.75
2023-01-27T13:05:45.104Z,90934.69
2023-01-27T13:08:18.927Z,90937.50
2023-01-27T13:10:52.098Z,90938.03
2023-01-27T13:13:24.763Z,90952.88
2023-01-27T13:16:00.146Z,90943.91
2023-01-27T13:18:33.638Z,90946.22
2023-01-27T13:21:10.950Z,90940.34
2023-01-27T13:23:44.368Z,90933.94
2023-01-27T13:26:18.235Z,90940.06
2023-01-27T13:28:53.684Z,90948.78
2023-01-27T13:31:33.881Z,90951.34
2023-01-27T13:34:13.587Z,90955.47
2023-01-27T13:36:48.647Z,90947.75
2023-01-27T13:39:27.702Z,90950.31
2023-01-27T13:42:07.309Z,90947.25
2023-01-27T13:44:41.452Z,90947.47
2023-01-27T13:47:16.389Z,90940.06
2023-01-27T13:49:51.947Z,90944.91
2023-01-27T13:52:24.850Z,90947.75
2023-01-27T13:54:57.340Z,90946.97
2023-01-27T13:57:42.762Z,90949.25
2023-01-27T14:00:19.931Z,90950.03
2023-01-27T14:03:10.919Z,90950.53
2023-01-27T14:05:57.746Z,90955.69
2023-01-27T14:08:44.638Z,90959.28
2023-01-27T14:11:20.507Z,90972.84
2023-01-27T14:13:59.130Z,90964.91
2023-01-27T14:16:37.622Z,90965.19
2023-01-27T14:19:20.056Z,90964.88
2023-01-27T14:21:56.875Z,90966.44
2023-01-27T14:24:35.818Z,90966.47
2023-01-27T14:27:11.855Z,90973.38
2023-01-27T14:29:46.772Z,90973.63
2023-01-27T14:32:25.836Z,90978.75
2023-01-27T14:35:15.768Z,90987.22
2023-01-27T14:37:53.361Z,90979.53
2023-01-27T14:40:28.931Z,90987.19
2023-01-27T14:43:06.691Z,90990.03
2023-01-27T14:45:40.569Z,90982.06
2023-01-27T14:48:21.367Z,90980.69
2023-01-27T14:51:02.307Z,90987.88
2023-01-27T14:53:47.561Z,90988.88
2023-01-27T14:56:27.004Z,90992.75
2023-01-27T14:59:01.502Z,90995.31
2023-01-27T15:01:39.314Z,91001.28
2023-01-27T15:04:26.510Z,90999.44
2023-01-27T15:07:02.391Z,91008.63
2023-01-27T15:09:44.073Z,91010.94
2023-01-27T15:12:36.192Z,91009.94
2023-01-27T15:15:26.980Z,91011.22
2023-01-27T15:18:08.421Z,91019.66
2023-01-27T15:21:02.705Z,91015.81
2023-01-27T15:23:40.829Z,91023.19
2023-01-27T15:26:16.443Z,91027.41
2023-01-27T15:28:49.399Z,91025.44
2023-01-27T15:31:23.243Z,91041.00
2023-01-27T15:33:56.195Z,91037.50
2023-01-27T15:36:32.770Z,91046.22
2023-01-27T15:39:20.237Z,91043.84
2023-01-27T15:42:09.800Z,91036.94
2023-01-27T15:44:58.359Z,91042.63
2023-01-27T15:47:31.477Z,91047.50
2023-01-27T15:50:10.976Z,91048.78
2023-01-27T15:52:44.181Z,91054.13
2023-01-27T15:55:24.573Z,91055.84
2023-01-27T15:58:03.798Z,91055.78
2023-01-27T16:00:38.105Z,91060.19
2023-01-27T16:03:17.108Z,91062.78
2023-01-27T16:05:51.414Z,91072.50
2023-01-27T16:08:24.864Z,91067.69
2023-01-27T16:11:11.668Z,91065.63
2023-01-27T16:13:44.607Z,91074.84
2023-01-27T16:16:37.796Z,91078.88
2023-01-27T16:19:17.923Z,91076.22
2023-01-27T16:21:52.464Z,91080.34
2023-01-27T16:24:28.484Z,91080.16
2023-01-27T16:27:05.599Z,91079.44
2023-01-27T16:29:39.308Z,91084.34
2023-01-27T16:32:14.704Z,91091.28
2023-01-27T16:34:49.392Z,91093.69
2023-01-27T16:37:23.735Z,91097.78
2023-01-27T16:40:00.429Z,91091.91
2023-01-27T16:42:33.850Z,91097.25
2023-01-27T16:45:15.504Z,91090.13
2023-01-27T16:47:50.823Z,91093.25
2023-01-27T16:50:31.631Z,91088.88
2023-01-27T16:53:04.197Z,91096.03
2023-01-27T16:55:36.298Z,91097.59
2023-01-27T16:58:17.549Z,91097.09
2023-01-27T17:00:51.381Z,91107.06
2023-01-27T17:03:27.595Z,91108.03
2023-01-27T17:06:01.983Z,91098.75
2023-01-27T17:08:42.429Z,91104.34
2023-01-27T17:11:17.099Z,91108.91
2023-01-27T17:13:50.240Z,91106.97
2023-01-27T17:16:24.928Z,91113.88
2023-01-27T17:19:01.402Z,91110.84
2023-01-27T17:21:36.911Z,91110.03
2023-01-27T17:24:15.965Z,91112.03
2023-01-27T17:26:49.187Z,91109.44
2023-01-27T17:29:22.558Z,91107.09
2023-01-27T17:31:55.296Z,91107.38
2023-01-27T17:34:28.457Z,91117.41
2023-01-27T17:37:14.843Z,91114.31
2023-01-27T17:39:47.466Z,91108.75
2023-01-27T17:42:20.522Z,91124.09
2023-01-27T17:44:52.582Z,91121.34
2023-01-27T17:47:24.643Z,91126.63
2023-01-27T17:49:57.364Z,91132.78
2023-01-27T17:52:31.433Z,91132.25
2023-01-27T17:55:05.193Z,91138.63
2023-01-27T17:57:38.702Z,91138.09
2023-01-27T18:00:17.584Z,91142.69
2023-01-27T18:02:54.043Z,91151.41
2023-01-27T18:05:28.953Z,91145.28
2023-01-27T18:08:03.192Z,91154.50
2023-01-27T18:10:37.538Z,91155.50
2023-01-27T18:13:21.258Z,91156.09
2023-01-27T18:15:58.878Z,91156.75
2023-01-27T18:18:31.900Z,91157.31
2023-01-27T18:21:05.549Z,91160.72
2023-01-27T18:23:44.055Z,91156.13
2023-01-27T18:26:18.872Z,91166.44
2023-01-27T18:28:53.310Z,91166.19
2023-01-27T18:31:29.509Z,91167.09
2023-01-27T18:34:14.249Z,91176.78
2023-01-27T18:36:52.309Z,91172.22
2023-01-27T18:39:27.935Z,91178.41
2023-01-27T18:42:01.522Z,91173.78
2023-01-27T18:44:37.768Z,91173.06
2023-01-27T18:47:24.913Z,91173.06
2023-01-27T18:49:59.156Z,91181.28
2023-01-27T18:52:31.180Z,91185.97
2023-01-27T18:55:12.481Z,91179.84
2023-01-27T18:57:46.911Z,91178.31
2023-01-27T19:00:21.882Z,91178.31
2023-01-27T19:02:56.477Z,91181.66
2023-01-27T19:05:31.141Z,91176.31
2023-01-27T19:08:04.064Z,91185.78
2023-01-27T19:10:38.415Z,91183.97
2023-01-27T19:13:10.860Z,91184.47
2023-01-27T19:15:47.762Z,91187.50
2023-01-27T19:18:22.395Z,91184.69
2023-01-27T19:20:56.196Z,91189.09
2023-01-27T19:23:28.640Z,91185.25
2023-01-27T19:26:02.961Z,91194.28
2023-01-27T19:28:35.929Z,91193.28
2023-01-27T19:31:09.049Z,91192.19
2023-01-27T19:33:46.709Z,91186.31
2023-01-27T19:36:21.760Z,91187.34
2023-01-27T19:38:57.566Z,91188.06
2023-01-27T19:41:30.847Z,91191.19
2023-01-27T19:44:03.305Z,91195.00
2023-01-27T19:46:36.220Z,91197.56
2023-01-27T19:49:13.905Z,91199.81
2023-01-27T19:51:45.976Z,91197.75
2023-01-27T19:54:18.161Z,91200.50
2023-01-27T19:56:50.983Z,91205.84
2023-01-27T19:59:23.179Z,91203.03
2023-01-27T20:01:56.213Z,91205.41
2023-01-27T20:04:29.086Z,91204.97
2023-01-27T20:07:01.663Z,91203.78
2023-01-27T20:09:33.856Z,91203.28
2023-01-27T20:12:10.564Z,91205.06
2023-01-27T20:14:42.915Z,91202.81
2023-01-27T20:17:15.210Z,91203.56
2023-01-27T20:19:49.097Z,91206.50
2023-01-27T20:22:21.693Z,91208.28
2023-01-27T20:24:53.938Z,91210.09
2023-01-27T20:27:26.851Z,91206.47
2023-01-27T20:29:59.031Z,91206.91
2023-01-27T20:32:31.117Z,91213.13
2023-01-27T20:35:03.319Z,91219.81
2023-01-27T20:37:35.400Z,91220.69
2023-01-27T20:40:08.602Z,91215.22
2023-01-27T20:42:41.537Z,91218.53
2023-01-27T20:45:14.136Z,91221.63
2023-01-27T20:47:47.980Z,91216.00
2023-01-27T20:50:20.608Z,91223.69
2023-01-27T20:52:52.912Z,91222.69
2023-01-27T20:55:25.213Z,91225.25
2023-01-27T20:57:57.899Z,91234.25
2023-01-27T21:00:29.948Z,91231.09
2023-01-27T21:03:03.492Z,91229.59
2023-01-27T21:05:35.549Z,91224.94
2023-01-27T21:08:07.614Z,91238.13
2023-01-27T21:10:40.141Z,91235.41
2023-01-27T21:13:13.072Z,91229.28
2023-01-27T21:15:46.140Z,91228.78
2023-01-27T21:18:18.355Z,91240.22
2023-01-27T21:20:51.489Z,91243.19
2023-01-27T21:23:23.706Z,91242.28
2023-01-27T21:25:55.776Z,91242.81
2023-01-27T21:28:28.424Z,91250.78
2023-01-27T21:31:04.371Z,91248.13
2023-01-27T21:33:37.386Z,91245.25
2023-01-27T21:36:10.868Z,91250.88
2023-01-27T21:38:43.195Z,91249.94
2023-01-27T21:41:37.282Z,91247.19
2023-01-27T21:44:46.872Z,91247.09
2023-01-27T21:47:19.174Z,91245.00
2023-01-27T21:50:00.035Z,91252.50
2023-01-27T21:52:34.025Z,91256.59
2023-01-27T21:55:07.209Z,91267.59
2023-01-27T21:57:39.546Z,91261.75
2023-01-27T22:00:13.024Z,91259.97
2023-01-27T22:02:51.473Z,91260.50
2023-01-27T22:05:24.028Z,91267.09
2023-01-27T22:07:56.177Z,91268.00
2023-01-27T22:10:29.165Z,91263.75
2023-01-27T22:13:02.991Z,91264.31
2023-01-27T22:15:36.012Z,91262.59
2023-01-27T22:18:08.512Z,91261.56
2023-01-27T22:20:40.596Z,91261.06
2023-01-27T22:23:12.860Z,91264.47
2023-01-27T22:25:47.287Z,91264.53
2023-01-27T22:28:19.752Z,91261.19
2023-01-27T22:30:52.744Z,91263.50
2023-01-27T22:33:24.826Z,91263.41
2023-01-27T22:36:00.189Z,91267.38
2023-01-27T22:38:36.702Z,91272.22
2023-01-27T22:41:08.762Z,91262.66
2023-01-27T22:43:40.799Z,91269.03
2023-01-27T22:46:13.505Z,91279.31
2023-01-27T22:48:47.056Z,91273.06
2023-01-27T22:51:19.067Z,91271.63
2023-01-27T22:53:51.122Z,91277.03
2023-01-27T22:56:23.101Z,91273.59
2023-01-27T22:58:55.237Z,91272.31
2023-01-27T23:01:29.217Z,91274.84
2023-01-27T23:04:01.740Z,91277.78
2023-01-27T23:06:33.771Z,91282.78
2023-01-27T23:09:05.835Z,91274.81
2023-01-27T23:11:37.919Z,91269.78
2023-01-27T23:14:09.894Z,91273.28
2023-01-27T23:16:45.593Z,91270.28
2023-01-27T23:19:17.764Z,91263.28
2023-01-27T23:21:49.841Z,91273.00
2023-01-27T23:24:22.004Z,91266.59
2023-01-27T23:26:54.080Z,91265.91
2023-01-27T23:29:27.791Z,91273.88
2023-01-27T23:32:01.919Z,91271.91
2023-01-27T23:34:34.236Z,91271.16
2023-01-27T23:37:06.409Z,91272.19
2023-01-27T23:39:38.544Z,91271.25
2023-01-27T23:42:10.566Z,91270.03
2023-01-27T23:44:42.639Z,91270.94
2023-01-27T23:47:15.907Z,91279.78
2023-01-27T23:49:48.016Z,91276.75
2023-01-27T23:52:20.013Z,91273.44
2023-01-27T23:54:52.038Z,91273.16
2023-01-27T23:57:24.030Z,91277.44
2023-01-27T23:59:56.105Z,91274.97
